Time;durP1;ratioP1;P1;durP2;ratioP2;P2;SDS_P1;SDS_P2;PMS_P1;PMS_P2;Temp;Humidity;BMP_temperature;BMP_pressure;BME280_temperature;BME280_humidity;BME280_pressure;Samples;Min_cycle;Max_cycle;Signal;HPM_P1;HPM_P2
2022/07/06 00:01:41;;;;;;;2.37;2.17;;;16.50;99.90;;;;;;5032692;28;20197;-34
2022/07/06 00:04:07;;;;;;;5.57;2.43;;;16.60;99.90;;;;;;5032555;28;20277;-34
2022/07/06 00:06:33;;;;;;;4.33;2.70;;;16.60;99.90;;;;;;5030515;28;20582;-34
2022/07/06 00:08:58;;;;;;;3.80;2.20;;;16.70;99.90;;;;;;5032103;28;20421;-34
2022/07/06 00:11:24;;;;;;;2.73;2.53;;;16.70;99.90;;;;;;5032480;28;20417;-34
2022/07/06 00:13:50;;;;;;;4.70;2.93;;;16.70;99.90;;;;;;5032195;28;20183;-34
2022/07/06 00:16:17;;;;;;;5.40;2.30;;;16.60;99.90;;;;;;5032488;28;20178;-34
2022/07/06 00:18:43;;;;;;;3.03;2.53;;;16.40;99.90;;;;;;5030475;28;20425;-34
2022/07/06 00:21:09;;;;;;;3.87;2.20;;;16.40;99.90;;;;;;5035934;28;20423;-34
2022/07/06 00:23:34;;;;;;;3.60;2.70;;;16.40;99.90;;;;;;5033092;28;20212;-34
2022/07/06 00:26:01;;;;;;;5.40;2.70;;;16.30;99.90;;;;;;5032228;28;20236;-34
2022/07/06 00:28:26;;;;;;;5.43;2.40;;;16.30;99.90;;;;;;5044514;28;20428;-34
2022/07/06 00:30:53;;;;;;;2.60;2.40;;;16.40;99.90;;;;;;5032267;28;20491;-34
2022/07/06 00:33:19;;;;;;;5.17;3.13;;;16.30;99.90;;;;;;5032072;28;20189;-34
2022/07/06 00:35:45;;;;;;;2.60;2.40;;;16.30;99.90;;;;;;5032036;28;20421;-34
2022/07/06 00:38:10;;;;;;;4.53;2.80;;;16.30;99.90;;;;;;5031322;28;20425;-34
2022/07/06 00:40:36;;;;;;;3.37;2.67;;;16.20;99.90;;;;;;5031771;28;20197;-34
2022/07/06 00:43:02;;;;;;;4.10;2.93;;;16.20;99.90;;;;;;5031885;28;20201;-34
2022/07/06 00:45:28;;;;;;;4.30;2.40;;;16.20;99.90;;;;;;5031791;28;20192;-34
2022/07/06 00:47:54;;;;;;;5.00;2.80;;;16.20;99.90;;;;;;5041396;28;20429;-34
2022/07/06 00:50:21;;;;;;;3.57;2.70;;;16.20;99.90;;;;;;5031616;28;20210;-34
2022/07/06 00:52:56;;;;;;;3.40;2.60;;;16.10;99.90;;;;;;5031723;28;20704;-34
2022/07/06 00:55:30;;;;;;;3.00;2.57;;;16.20;99.90;;;;;;5031354;28;20854;-34
2022/07/06 00:57:57;;;;;;;4.73;2.63;;;16.20;99.90;;;;;;5031088;28;20432;-34
2022/07/06 01:00:26;;;;;;;5.60;2.30;;;16.20;99.90;;;;;;5031575;28;20997;-34
2022/07/06 01:02:52;;;;;;;4.90;2.70;;;16.20;99.90;;;;;;5031401;28;20429;-34
2022/07/06 01:05:18;;;;;;;3.60;2.93;;;16.20;99.90;;;;;;5029955;28;20421;-34
2022/07/06 01:07:46;;;;;;;3.33;2.50;;;16.20;99.90;;;;;;5030388;28;20421;-34
2022/07/06 01:10:13;;;;;;;2.93;2.53;;;16.20;99.90;;;;;;5031455;28;20480;-34
2022/07/06 01:12:41;;;;;;;4.00;2.57;;;16.10;99.90;;;;;;5030788;28;20532;-34
2022/07/06 01:15:24;;;;;;;4.43;2.90;;;16.10;99.90;;;;;;5031237;28;20436;-34
2022/07/06 01:17:50;;;;;;;3.93;2.33;;;16.10;99.90;;;;;;5030607;28;20416;-34
2022/07/06 01:20:23;;;;;;;2.77;2.40;;;16.00;99.90;;;;;;5031138;28;20844;-34
2022/07/06 01:22:51;;;;;;;2.47;2.00;;;16.00;99.90;;;;;;5036671;28;20500;-34
2022/07/06 01:25:18;;;;;;;4.27;2.30;;;15.90;99.90;;;;;;5031303;28;20425;-34
2022/07/06 01:27:44;;;;;;;4.27;2.50;;;15.90;99.90;;;;;;5043508;28;20431;-34
2022/07/06 01:30:13;;;;;;;4.23;2.50;;;15.90;99.90;;;;;;5031050;28;20457;-34
2022/07/06 01:32:39;;;;;;;2.47;2.00;;;15.90;99.90;;;;;;5030738;28;20217;-34
2022/07/06 01:35:06;;;;;;;2.57;2.37;;;15.90;99.90;;;;;;5031037;28;20452;-34
2022/07/06 01:37:32;;;;;;;3.33;2.53;;;15.80;99.90;;;;;;5030282;28;20487;-34
2022/07/06 01:39:59;;;;;;;3.60;2.00;;;15.80;99.90;;;;;;5030835;28;20413;-34
2022/07/06 01:42:25;;;;;;;6.20;2.00;;;15.80;99.90;;;;;;5030753;28;20189;-34
2022/07/06 01:44:51;;;;;;;2.50;2.27;;;15.80;99.90;;;;;;5030744;28;20505;-34
2022/07/06 01:47:16;;;;;;;2.60;2.00;;;15.80;99.90;;;;;;5040430;28;20413;-34
2022/07/06 01:49:42;;;;;;;2.10;1.60;;;15.80;99.90;;;;;;5030112;28;20222;-34
2022/07/06 01:52:08;;;;;;;4.03;2.63;;;15.80;99.90;;;;;;5030559;28;20183;-34
2022/07/06 01:54:33;;;;;;;2.27;1.90;;;15.70;99.90;;;;;;5030653;28;20186;-34
2022/07/06 01:56:59;;;;;;;4.10;2.10;;;15.60;99.90;;;;;;5029972;28;20196;-34
2022/07/06 01:59:25;;;;;;;2.20;2.00;;;15.60;99.90;;;;;;5030367;28;20273;-34
2022/07/06 02:01:50;;;;;;;5.20;3.30;;;15.60;99.90;;;;;;5028991;28;20210;-34
2022/07/06 02:04:16;;;;;;;7.30;2.20;;;15.50;99.90;;;;;;5030553;28;20248;-34
2022/07/06 02:06:42;;;;;;;2.00;1.60;;;15.50;99.90;;;;;;5028307;28;20218;-34
2022/07/06 02:25:57;;;;;;;3.47;2.40;;;15.30;99.90;;;;;;5041261;28;20557;-34
2022/07/06 02:28:23;;;;;;;2.23;2.03;;;15.30;99.90;;;;;;5049147;28;20432;-34
2022/07/06 02:30:49;;;;;;;2.77;2.57;;;15.30;99.90;;;;;;5050003;28;20564;-34
2022/07/06 02:33:14;;;;;;;2.93;2.70;;;15.30;99.90;;;;;;5049648;28;20610;-34
2022/07/06 02:35:42;;;;;;;3.50;2.10;;;15.20;99.90;;;;;;5049939;28;20185;-34
2022/07/06 02:38:09;;;;;;;3.60;2.50;;;15.30;99.90;;;;;;5049077;28;20178;-34
2022/07/06 02:40:36;;;;;;;4.73;2.47;;;15.20;99.90;;;;;;5049884;28;20431;-35
2022/07/06 02:43:01;;;;;;;3.67;2.33;;;15.20;99.90;;;;;;5049707;28;20763;-34
2022/07/06 02:45:27;;;;;;;2.90;2.70;;;15.10;99.90;;;;;;5049916;28;20435;-34
2022/07/06 02:47:55;;;;;;;2.80;1.93;;;15.10;99.90;;;;;;5042987;28;20178;-34
2022/07/06 02:50:21;;;;;;;2.10;1.90;;;15.00;99.90;;;;;;5029891;28;20245;-34
2022/07/06 02:52:46;;;;;;;3.50;2.57;;;14.80;99.90;;;;;;5028441;28;20450;-34
2022/07/06 02:55:12;;;;;;;5.80;2.50;;;14.70;99.90;;;;;;5030076;28;20190;-34
2022/07/06 02:57:38;;;;;;;3.07;2.13;;;14.70;99.90;;;;;;5029106;28;20243;-34
2022/07/06 03:00:05;;;;;;;4.93;2.47;;;14.70;99.90;;;;;;5029784;28;20182;-34
2022/07/06 03:02:31;;;;;;;2.33;2.13;;;14.60;99.90;;;;;;5029518;28;20585;-34
2022/07/06 03:04:57;;;;;;;2.60;2.00;;;14.50;99.90;;;;;;5029525;28;20464;-34
2022/07/06 03:07:23;;;;;;;3.63;2.00;;;14.40;99.90;;;;;;5027721;28;20479;-34
2022/07/06 03:09:49;;;;;;;4.07;2.30;;;14.30;99.90;;;;;;5029435;28;20487;-34
2022/07/06 03:12:15;;;;;;;3.67;2.00;;;14.20;99.90;;;;;;5029672;28;20794;-34
2022/07/06 03:14:42;;;;;;;2.53;2.33;;;14.10;99.90;;;;;;5029531;28;20417;-34
2022/07/06 03:17:08;;;;;;;4.57;1.90;;;14.10;99.90;;;;;;5028863;28;20421;-34
2022/07/06 03:19:33;;;;;;;4.10;2.70;;;14.00;99.90;;;;;;5029424;28;20947;-34
2022/07/06 03:21:59;;;;;;;4.03;2.30;;;14.00;99.90;;;;;;5035301;28;20429;-34
2022/07/06 03:24:25;;;;;;;4.57;2.10;;;14.00;99.90;;;;;;5028353;28;20186;-34
2022/07/06 03:26:51;;;;;;;2.57;2.10;;;14.10;99.90;;;;;;5029056;28;20440;-34
2022/07/06 03:29:17;;;;;;;5.30;2.20;;;14.00;99.90;;;;;;5042400;28;20209;-34
2022/07/06 03:31:43;;;;;;;3.90;1.97;;;13.90;99.90;;;;;;5049083;28;20419;-34
2022/07/06 03:34:09;;;;;;;3.37;2.00;;;13.90;99.90;;;;;;5049459;28;20423;-34
2022/07/06 03:36:35;;;;;;;3.10;2.37;;;13.90;99.90;;;;;;5052495;28;20221;-34
2022/07/06 03:39:00;;;;;;;4.13;2.47;;;14.00;99.90;;;;;;5053165;28;20193;-34
2022/07/06 03:41:26;;;;;;;2.17;1.97;;;14.00;99.90;;;;;;5052848;28;20420;-34
2022/07/06 03:43:52;;;;;;;2.23;2.03;;;14.00;99.90;;;;;;5052944;28;20235;-34
2022/07/06 03:46:17;;;;;;;3.50;2.30;;;14.00;99.90;;;;;;5052796;28;20555;-34
2022/07/06 03:48:43;;;;;;;2.40;2.20;;;14.00;99.90;;;;;;5039937;28;20281;-34
2022/07/06 03:51:10;;;;;;;6.53;2.20;;;14.00;99.90;;;;;;5032658;28;20222;-34
2022/07/06 03:53:36;;;;;;;2.47;2.23;;;14.00;99.90;;;;;;5032895;28;20182;-34
2022/07/06 03:58:46;;;;;;;1.70;1.60;;;14.00;99.90;;;;;;5031921;28;20185;-34
2022/07/06 04:01:11;;;;;;;4.53;2.40;;;14.10;99.90;;;;;;5032789;28;20421;-34
2022/07/06 04:03:37;;;;;;;3.70;2.17;;;14.00;99.90;;;;;;5032584;28;20237;-34
2022/07/06 04:06:03;;;;;;;2.23;2.00;;;14.10;99.90;;;;;;5031125;28;20728;-34
2022/07/06 04:08:29;;;;;;;2.70;2.20;;;14.20;99.90;;;;;;5031680;28;20194;-34
2022/07/06 04:10:54;;;;;;;4.13;2.30;;;14.20;99.90;;;;;;5032694;28;20568;-34
2022/07/06 04:13:20;;;;;;;4.33;2.10;;;14.20;99.90;;;;;;5032080;28;20183;-34
2022/07/06 04:15:46;;;;;;;3.60;2.00;;;14.30;99.90;;;;;;5032671;28;20182;-34
2022/07/06 04:18:11;;;;;;;3.73;2.17;;;14.30;99.90;;;;;;5031601;28;20214;-34
2022/07/06 04:20:37;;;;;;;4.30;2.33;;;14.30;99.90;;;;;;5032529;28;20286;-34
2022/07/06 04:23:03;;;;;;;3.20;2.27;;;14.30;99.90;;;;;;5036979;28;20197;-34
2022/07/06 04:25:28;;;;;;;4.00;2.13;;;14.40;99.90;;;;;;5032436;28;20191;-34
2022/07/06 04:27:54;;;;;;;4.07;2.40;;;14.50;99.90;;;;;;5032668;28;20182;-36
2022/07/06 04:30:20;;;;;;;4.20;2.40;;;14.50;99.90;;;;;;5052022;28;20216;-36
2022/07/06 04:32:46;;;;;;;4.43;2.40;;;14.50;99.90;;;;;;5052063;28;20186;-36
2022/07/06 04:35:11;;;;;;;4.97;2.43;;;14.60;99.90;;;;;;5051933;28;20417;-37
2022/07/06 04:37:37;;;;;;;3.83;2.70;;;14.60;99.90;;;;;;5051467;28;20186;-36
2022/07/06 04:40:04;;;;;;;4.43;2.23;;;14.70;99.90;;;;;;5051917;28;20186;-34
2022/07/06 04:42:29;;;;;;;5.70;2.93;;;14.70;99.90;;;;;;5051535;28;20193;-34
2022/07/06 04:44:55;;;;;;;2.80;2.43;;;14.70;99.90;;;;;;5051742;28;20428;-34
2022/07/06 04:47:21;;;;;;;3.27;1.90;;;14.70;99.90;;;;;;5049297;28;20213;-34
2022/07/06 04:49:46;;;;;;;1.87;1.63;;;14.80;99.90;;;;;;5031685;28;20304;-34
2022/07/06 04:52:12;;;;;;;3.37;2.07;;;14.90;99.90;;;;;;5035302;28;20182;-34
2022/07/06 04:54:38;;;;;;;3.33;2.43;;;15.00;99.90;;;;;;5047424;28;20174;-34
2022/07/06 04:57:04;;;;;;;4.07;2.77;;;15.00;99.90;;;;;;5035611;28;20541;-34
2022/07/06 04:59:30;;;;;;;2.23;2.07;;;15.00;99.90;;;;;;5039714;28;20215;-34
2022/07/06 05:01:56;;;;;;;2.93;1.93;;;15.00;99.90;;;;;;5036995;28;20417;-34
2022/07/06 05:04:23;;;;;;;3.70;2.60;;;15.00;99.90;;;;;;5030927;28;20957;-34
2022/07/06 05:06:49;;;;;;;2.40;2.07;;;15.10;99.90;;;;;;5029130;28;20445;-34
2022/07/06 05:09:14;;;;;;;4.70;2.80;;;15.10;99.90;;;;;;5031466;28;20428;-34
2022/07/06 05:11:40;;;;;;;4.23;2.20;;;15.20;99.90;;;;;;5031087;28;20182;-34
2022/07/06 05:14:06;;;;;;;3.77;2.40;;;15.30;99.90;;;;;;5031485;28;20189;-34
2022/07/06 05:16:32;;;;;;;3.77;2.30;;;15.40;99.90;;;;;;5030770;28;20190;-34
2022/07/06 05:18:58;;;;;;;4.50;3.17;;;15.50;99.90;;;;;;5031129;28;20479;-34
2022/07/06 05:21:24;;;;;;;4.17;2.97;;;15.60;99.90;;;;;;5036549;28;20442;-34
2022/07/06 05:23:50;;;;;;;4.40;2.77;;;15.60;99.90;;;;;;5035989;28;20428;-34
2022/07/06 05:26:16;;;;;;;2.50;1.93;;;15.70;99.90;;;;;;5043792;28;20209;-34
2022/07/06 05:28:42;;;;;;;3.77;2.53;;;15.80;99.90;;;;;;5038295;28;20501;-36
2022/07/06 05:31:08;;;;;;;5.40;2.20;;;15.90;99.90;;;;;;5040076;28;20263;-36
2022/07/06 05:33:34;;;;;;;9.03;4.37;;;15.90;99.90;;;;;;5041975;28;20959;-37
2022/07/06 05:35:59;;;;;;;5.67;2.70;;;16.00;99.90;;;;;;5037787;28;20643;-37
2022/07/06 05:38:25;;;;;;;3.63;2.47;;;16.10;99.90;;;;;;5040740;28;20537;-37
2022/07/06 05:40:51;;;;;;;9.10;2.70;;;16.10;99.90;;;;;;5030623;28;20218;-36
2022/07/06 05:43:17;;;;;;;4.63;2.57;;;16.10;99.90;;;;;;5030750;28;20186;-37
2022/07/06 05:45:43;;;;;;;7.73;2.70;;;16.20;99.90;;;;;;5033974;28;20192;-34
2022/07/06 05:50:53;;;;;;;6.50;2.60;;;16.30;99.90;;;;;;5036391;28;21635;-34
2022/07/06 05:53:19;;;;;;;4.07;2.40;;;16.50;99.90;;;;;;5047684;28;20408;-34
2022/07/06 05:55:46;;;;;;;2.97;2.50;;;16.70;99.90;;;;;;5040474;28;20495;-34
2022/07/06 05:58:12;;;;;;;4.00;2.40;;;16.80;99.90;;;;;;5044412;28;20189;-34
2022/07/06 06:00:38;;;;;;;3.03;1.90;;;16.80;99.90;;;;;;5050371;28;20416;-34
2022/07/06 06:03:04;;;;;;;12.20;2.70;;;17.00;99.90;;;;;;5050400;28;20432;-34
2022/07/06 06:05:29;;;;;;;3.43;2.23;;;17.20;99.90;;;;;;5048285;28;20190;-34
2022/07/06 06:07:55;;;;;;;4.97;2.47;;;17.20;99.90;;;;;;5049361;28;20428;-34
2022/07/06 06:10:23;;;;;;;3.27;2.00;;;17.30;99.90;;;;;;5050062;28;20250;-34
2022/07/06 06:12:49;;;;;;;3.83;1.77;;;17.40;99.90;;;;;;5050446;28;20190;-36
2022/07/06 06:15:15;;;;;;;2.40;1.93;;;17.40;99.90;;;;;;5046087;28;20815;-36
2022/07/06 06:17:41;;;;;;;2.97;1.90;;;17.50;99.90;;;;;;5039790;28;20433;-37
2022/07/06 06:20:08;;;;;;;4.70;2.60;;;17.60;99.90;;;;;;5030160;28;20951;-34
2022/07/06 06:22:54;;;;;;;2.10;1.83;;;17.50;99.90;;;;;;5036822;28;20194;-34
2022/07/06 06:25:27;;;;;;;3.77;2.13;;;17.50;99.90;;;;;;5031532;28;20437;-34
2022/07/06 06:27:53;;;;;;;3.03;1.80;;;17.40;99.90;;;;;;5046668;28;20427;-34
2022/07/06 06:30:19;;;;;;;3.20;1.63;;;17.40;99.90;;;;;;5041851;28;20468;-34
2022/07/06 06:32:45;;;;;;;3.10;1.70;;;17.50;99.90;;;;;;5043670;28;20416;-34
2022/07/06 06:35:11;;;;;;;3.83;1.40;;;17.60;99.90;;;;;;5030211;28;20444;-35
2022/07/06 06:37:36;;;;;;;1.93;1.40;;;17.60;99.90;;;;;;5032629;28;20799;-35
2022/07/06 06:40:03;;;;;;;3.27;1.57;;;17.50;99.90;;;;;;5043968;28;20598;-35
2022/07/06 06:42:29;;;;;;;3.20;1.40;;;17.50;99.90;;;;;;5043038;28;20196;-34
2022/07/06 06:44:55;;;;;;;2.60;1.27;;;17.40;99.90;;;;;;5038755;28;20432;-35
2022/07/06 06:47:20;;;;;;;4.23;1.53;;;17.40;99.90;;;;;;5044281;28;20189;-34
2022/07/06 06:49:47;;;;;;;5.27;1.77;;;17.40;99.90;;;;;;5031624;28;20325;-34
2022/07/06 06:52:13;;;;;;;1.43;1.13;;;17.40;99.90;;;;;;5044497;28;20213;-35
2022/07/06 06:54:39;;;;;;;4.90;1.40;;;17.40;99.90;;;;;;5049821;28;20416;-34
2022/07/06 06:57:05;;;;;;;2.40;1.60;;;17.40;99.90;;;;;;5049001;28;20482;-34
2022/07/06 06:59:30;;;;;;;2.80;1.47;;;17.40;99.90;;;;;;5045160;28;20584;-34
2022/07/06 07:01:56;;;;;;;2.33;1.17;;;17.40;99.90;;;;;;5041606;28;20235;-35
2022/07/06 07:04:22;;;;;;;6.37;1.30;;;17.40;99.90;;;;;;5049647;28;20182;-35
2022/07/06 07:06:48;;;;;;;2.60;1.30;;;17.40;99.90;;;;;;5047418;28;20220;-34
2022/07/06 07:09:13;;;;;;;2.50;1.43;;;17.40;99.90;;;;;;5049657;28;20428;-35
2022/07/06 07:11:39;;;;;;;3.97;1.20;;;17.40;99.90;;;;;;5053548;28;20691;-35
2022/07/06 07:14:05;;;;;;;4.13;1.40;;;17.40;99.90;;;;;;5053565;28;20244;-34
2022/07/06 07:16:31;;;;;;;2.23;1.10;;;17.40;99.90;;;;;;5053104;28;20213;-35
2022/07/06 07:18:57;;;;;;;2.57;1.07;;;17.50;99.90;;;;;;5053233;28;20194;-34
2022/07/06 07:21:22;;;;;;;3.30;1.40;;;17.60;99.90;;;;;;5053027;28;20189;-34
2022/07/06 07:23:50;;;;;;;4.00;1.07;;;17.60;99.90;;;;;;5033417;28;20537;-34
2022/07/06 07:26:16;;;;;;;2.80;1.43;;;17.60;99.90;;;;;;5033297;28;20206;-35
2022/07/06 07:28:42;;;;;;;2.83;1.00;;;17.60;99.90;;;;;;5040554;28;20424;-35
2022/07/06 07:31:07;;;;;;;1.83;1.20;;;17.60;99.90;;;;;;5052876;28;20455;-35
2022/07/06 07:33:33;;;;;;;1.70;1.03;;;17.60;99.90;;;;;;5053277;28;20196;-34
2022/07/06 07:35:59;;;;;;;2.53;1.17;;;17.60;99.90;;;;;;5053285;28;20458;-35
2022/07/06 07:38:25;;;;;;;4.03;1.40;;;17.60;99.90;;;;;;5052285;28;20938;-35
2022/07/06 07:40:53;;;;;;;3.73;1.30;;;17.70;99.90;;;;;;5052909;28;20459;-35
2022/07/06 07:43:19;;;;;;;2.37;1.00;;;17.80;99.90;;;;;;5053032;28;20231;-34
2022/07/06 07:45:46;;;;;;;6.77;1.20;;;17.80;99.90;;;;;;5052699;28;20420;-36
2022/07/06 07:48:11;;;;;;;2.10;1.27;;;17.80;99.90;;;;;;5044408;28;20221;-34
2022/07/06 07:50:37;;;;;;;2.10;0.90;;;17.90;99.90;;;;;;5036855;28;21022;-34
2022/07/06 07:53:03;;;;;;;1.37;1.10;;;17.80;99.90;;;;;;5045253;28;20193;-35
2022/07/06 07:55:28;;;;;;;3.80;1.30;;;17.90;99.90;;;;;;5032844;28;20198;-34
2022/07/06 07:57:54;;;;;;;1.53;0.97;;;17.80;99.90;;;;;;5032165;28;20825;-35
2022/07/06 08:00:21;;;;;;;4.00;1.10;;;17.80;99.90;;;;;;5032548;28;20677;-35
2022/07/06 08:02:48;;;;;;;2.23;0.93;;;17.80;99.90;;;;;;5031666;28;20190;-35
2022/07/06 08:05:15;;;;;;;3.63;1.53;;;17.90;99.90;;;;;;5031193;28;20445;-35
2022/07/06 08:07:44;;;;;;;2.10;1.00;;;17.90;99.90;;;;;;5031958;28;20424;-35
2022/07/06 08:10:10;;;;;;;2.83;1.20;;;18.00;99.90;;;;;;5032520;28;21160;-36
2022/07/06 08:12:37;;;;;;;1.53;1.10;;;17.90;99.90;;;;;;5032427;28;20421;-34
2022/07/06 08:15:04;;;;;;;3.10;1.10;;;18.00;99.90;;;;;;5032245;28;20432;-35
2022/07/06 08:17:30;;;;;;;1.80;1.20;;;18.10;99.90;;;;;;5031720;28;20932;-34
2022/07/06 08:19:56;;;;;;;1.40;1.20;;;18.10;99.90;;;;;;5032492;28;20959;-34
2022/07/06 08:22:21;;;;;;;1.87;0.90;;;18.10;99.90;;;;;;5036233;28;20433;-36
2022/07/06 08:24:47;;;;;;;1.70;1.20;;;18.10;99.90;;;;;;5032229;28;20426;-34
2022/07/06 08:27:13;;;;;;;1.17;0.80;;;18.20;99.90;;;;;;5031690;28;20186;-34
2022/07/06 08:29:38;;;;;;;2.20;1.00;;;18.30;99.90;;;;;;5047675;28;20889;-35
2022/07/06 08:32:04;;;;;;;3.00;1.07;;;18.30;99.90;;;;;;5052269;28;20188;-35
2022/07/06 08:34:30;;;;;;;3.47;1.03;;;18.50;99.90;;;;;;5050585;28;20641;-35
2022/07/06 08:36:56;;;;;;;1.70;0.93;;;18.50;99.90;;;;;;5051494;28;20423;-34
2022/07/06 08:39:22;;;;;;;1.50;1.00;;;18.60;99.90;;;;;;5051858;28;20184;-35
2022/07/06 08:41:49;;;;;;;2.03;0.90;;;18.60;99.90;;;;;;5051933;28;20182;-34
2022/07/06 08:44:16;;;;;;;1.67;0.90;;;18.70;99.90;;;;;;5051471;28;20527;-35
2022/07/06 08:46:42;;;;;;;1.97;1.00;;;18.80;99.90;;;;;;5051261;28;20506;-34
2022/07/06 08:49:08;;;;;;;1.77;0.80;;;18.80;99.90;;;;;;5035494;28;20850;-35
2022/07/06 08:51:36;;;;;;;3.00;1.17;;;18.90;99.80;;;;;;5031956;28;20182;-34
2022/07/06 08:54:05;;;;;;;0.90;0.73;;;18.90;99.90;;;;;;5031858;28;20428;-35
2022/07/06 08:56:31;;;;;;;3.23;1.20;;;18.90;99.90;;;;;;5031237;28;20421;-35
2022/07/06 08:58:57;;;;;;;2.20;1.27;;;18.80;99.90;;;;;;5031880;28;20780;-35
2022/07/06 09:01:24;;;;;;;1.20;0.80;;;18.80;99.90;;;;;;5031582;28;20432;-35
2022/07/06 09:03:50;;;;;;;1.30;1.07;;;18.70;99.90;;;;;;5031785;28;20190;-35
2022/07/06 09:06:24;;;;;;;3.33;1.30;;;18.80;99.90;;;;;;5030621;28;20535;-35
2022/07/06 09:08:52;;;;;;;1.77;0.83;;;18.80;99.90;;;;;;5030885;28;20429;-34
2022/07/06 09:11:18;;;;;;;1.30;1.10;;;18.90;99.90;;;;;;5031163;28;20515;-35
2022/07/06 09:13:44;;;;;;;1.83;0.90;;;19.00;99.90;;;;;;5031178;28;20429;-35
2022/07/06 09:16:14;;;;;;;3.10;0.93;;;19.00;99.90;;;;;;5031336;28;20186;-35
2022/07/06 09:18:43;;;;;;;2.40;1.10;;;19.00;99.50;;;;;;5030622;28;20478;-34
2022/07/06 09:21:09;;;;;;;2.33;0.83;;;19.00;99.40;;;;;;5034449;28;20417;-35
2022/07/06 09:23:36;;;;;;;1.23;0.97;;;19.00;99.30;;;;;;5034759;28;20516;-35
2022/07/06 09:26:04;;;;;;;3.33;0.83;;;18.90;99.10;;;;;;5031258;28;20183;-35
2022/07/06 09:28:41;;;;;;;3.20;0.73;;;18.90;99.30;;;;;;5036599;28;20973;-35
2022/07/06 09:31:07;;;;;;;3.17;1.10;;;18.90;99.00;;;;;;5051031;28;20474;-34
2022/07/06 09:33:34;;;;;;;2.03;0.93;;;19.00;99.40;;;;;;5050360;28;20415;-34
2022/07/06 09:36:01;;;;;;;1.33;0.60;;;19.30;99.70;;;;;;5049636;28;20412;-34
2022/07/06 09:38:28;;;;;;;1.30;0.90;;;19.50;98.70;;;;;;5049853;28;20934;-35
2022/07/06 09:40:54;;;;;;;2.27;1.20;;;19.60;98.80;;;;;;5050762;28;20428;-35
2022/07/06 09:43:22;;;;;;;2.33;1.10;;;19.90;98.80;;;;;;5050694;28;20458;-35
2022/07/06 09:45:50;;;;;;;1.97;0.93;;;20.10;97.00;;;;;;5050733;28;20970;-34
2022/07/06 09:48:24;;;;;;;2.00;1.10;;;20.00;97.00;;;;;;5039935;28;20421;-35
2022/07/06 09:50:54;;;;;;;3.40;1.30;;;20.00;96.90;;;;;;5030589;28;20798;-34
2022/07/06 09:53:21;;;;;;;2.07;0.90;;;19.80;96.80;;;;;;5030783;28;20987;-35
2022/07/06 09:55:50;;;;;;;1.20;0.70;;;19.70;97.20;;;;;;5030557;28;21077;-35
2022/07/06 09:58:16;;;;;;;1.57;0.80;;;19.70;97.40;;;;;;5029985;28;20768;-35
2022/07/06 10:00:44;;;;;;;1.63;1.00;;;19.60;96.90;;;;;;5030692;28;20421;-35
2022/07/06 10:03:10;;;;;;;2.70;1.00;;;19.60;97.20;;;;;;5030444;28;20427;-35
2022/07/06 10:05:41;;;;;;;2.57;1.00;;;19.60;97.30;;;;;;5029376;28;20448;-34
2022/07/06 10:08:11;;;;;;;2.00;1.00;;;19.60;96.90;;;;;;5030075;28;20452;-35
2022/07/06 10:10:39;;;;;;;1.30;1.20;;;19.60;97.00;;;;;;5028921;28;20489;-35
2022/07/06 10:13:06;;;;;;;2.30;1.20;;;19.60;96.20;;;;;;5030349;28;20453;-35
2022/07/06 10:15:33;;;;;;;1.80;1.47;;;19.60;97.00;;;;;;5030137;28;20865;-34
2022/07/06 10:18:01;;;;;;;1.33;0.97;;;19.60;96.90;;;;;;5029682;28;20413;-35
2022/07/06 10:20:32;;;;;;;1.77;1.13;;;19.60;96.80;;;;;;5032617;28;21165;-35
2022/07/06 10:23:00;;;;;;;1.30;0.90;;;19.60;96.70;;;;;;5038144;28;20532;-35
2022/07/06 10:25:26;;;;;;;2.83;0.80;;;19.60;96.90;;;;;;5032589;28;20428;-35
2022/07/06 10:27:53;;;;;;;1.87;0.90;;;19.50;97.30;;;;;;5034745;28;20423;-34
2022/07/06 10:30:20;;;;;;;3.07;1.30;;;19.60;97.50;;;;;;5029765;28;20548;-35
2022/07/06 10:32:49;;;;;;;2.67;1.00;;;19.60;96.90;;;;;;5030046;28;20455;-35
2022/07/06 10:35:18;;;;;;;2.07;1.00;;;19.60;97.50;;;;;;5030094;28;20922;-35
2022/07/06 10:37:44;;;;;;;1.47;0.90;;;19.70;97.50;;;;;;5035257;28;20414;-35
2022/07/06 10:42:57;;;;;;;4.57;0.83;;;20.30;97.10;;;;;;5037124;28;20447;-35
2022/07/06 10:45:29;;;;;;;1.67;1.00;;;20.50;95.60;;;;;;5041160;28;20485;-35
2022/07/06 10:48:15;;;;;;;1.07;0.63;;;20.50;94.20;;;;;;5041363;28;20595;-35
2022/07/06 10:50:54;;;;;;;0.90;0.80;;;20.40;95.00;;;;;;5028523;28;20457;-35
2022/07/06 10:53:27;;;;;;;2.30;0.90;;;20.30;95.70;;;;;;5028373;28;20939;-35
2022/07/06 10:55:55;;;;;;;3.57;1.00;;;20.20;95.80;;;;;;5028596;28;20429;-34
2022/07/06 10:58:43;;;;;;;1.90;0.80;;;20.30;96.00;;;;;;5028182;28;21010;-35
2022/07/06 11:01:10;;;;;;;2.50;1.00;;;20.50;95.70;;;;;;5037974;28;20931;-35
2022/07/06 11:03:38;;;;;;;2.80;1.30;;;20.60;95.30;;;;;;5049162;28;20428;-35
2022/07/06 11:06:12;;;;;;;4.50;0.97;;;20.60;95.40;;;;;;5048836;28;20854;-35
2022/07/06 11:09:02;;;;;;;0.90;0.60;;;20.70;95.40;;;;;;5048762;28;20839;-35
2022/07/06 11:11:33;;;;;;;1.43;0.90;;;20.70;93.30;;;;;;5049685;28;21111;-35
2022/07/06 11:14:03;;;;;;;2.40;0.93;;;20.70;93.60;;;;;;5049367;28;20503;-35
2022/07/06 11:16:36;;;;;;;2.17;1.30;;;20.70;94.30;;;;;;5049520;28;20448;-35
2022/07/06 11:19:14;;;;;;;5.37;0.80;;;20.60;94.40;;;;;;5049378;28;20424;-35
2022/07/06 11:22:07;;;;;;;1.33;0.77;;;20.50;93.90;;;;;;5048960;28;20432;-35
2022/07/06 11:24:35;;;;;;;2.47;0.80;;;20.50;93.30;;;;;;5029151;28;20420;-35
2022/07/06 11:27:01;;;;;;;1.60;1.00;;;20.50;93.80;;;;;;5027644;28;20417;-35
2022/07/06 11:29:29;;;;;;;1.63;1.00;;;20.60;93.30;;;;;;5043702;28;20424;-35
2022/07/06 11:31:58;;;;;;;5.20;0.97;;;20.70;93.90;;;;;;5049518;28;20440;-35
2022/07/06 11:34:29;;;;;;;0.70;0.50;;;21.00;94.90;;;;;;5049286;28;20420;-35
2022/07/06 11:36:59;;;;;;;1.70;1.00;;;21.20;94.00;;;;;;5048417;28;20428;-35
2022/07/06 11:39:32;;;;;;;1.87;0.90;;;21.40;93.80;;;;;;5049061;28;20431;-34
2022/07/06 11:42:00;;;;;;;3.13;1.00;;;21.50;92.40;;;;;;5049469;28;20424;-35
2022/07/06 11:44:26;;;;;;;1.30;0.80;;;21.70;94.10;;;;;;5049205;28;20458;-35
2022/07/06 11:46:54;;;;;;;2.57;0.80;;;21.80;93.00;;;;;;5048725;28;21088;-35
2022/07/06 11:49:20;;;;;;;3.97;1.10;;;21.70;92.50;;;;;;5031324;28;20508;-35
2022/07/06 11:51:47;;;;;;;2.33;1.00;;;21.60;91.90;;;;;;5029143;28;20968;-35
2022/07/06 11:54:17;;;;;;;4.20;1.10;;;21.50;92.20;;;;;;5029264;28;20534;-35
2022/07/06 11:56:52;;;;;;;2.53;0.80;;;21.20;92.00;;;;;;5030939;28;20916;-35
2022/07/06 11:59:23;;;;;;;3.90;1.30;;;21.10;92.80;;;;;;5032776;28;20417;-35
2022/07/06 12:01:50;;;;;;;3.03;1.30;;;20.90;93.50;;;;;;5032655;28;20510;-35
2022/07/06 12:04:15;;;;;;;2.30;1.00;;;20.80;93.10;;;;;;5031538;28;20747;-35
2022/07/06 12:06:44;;;;;;;1.80;1.20;;;20.80;93.70;;;;;;5030952;28;20544;-34
2022/07/06 12:09:11;;;;;;;3.17;1.50;;;20.80;93.90;;;;;;5032696;28;20647;-35
2022/07/06 12:11:39;;;;;;;3.00;1.30;;;20.90;93.90;;;;;;5032487;28;20521;-35
2022/07/06 12:14:18;;;;;;;2.80;1.33;;;21.10;94.40;;;;;;5032601;28;20417;-35
2022/07/06 12:16:45;;;;;;;5.47;1.73;;;21.30;92.90;;;;;;5031705;28;20429;-35
2022/07/06 12:19:12;;;;;;;3.90;1.40;;;21.40;93.20;;;;;;5032559;28;20932;-35
2022/07/06 12:21:46;;;;;;;3.63;1.53;;;21.60;94.00;;;;;;5037521;28;20463;-35
2022/07/06 12:24:25;;;;;;;2.13;1.63;;;21.70;93.30;;;;;;5032385;28;20507;-35
2022/07/06 12:26:52;;;;;;;1.60;0.93;;;21.60;91.40;;;;;;5031429;28;20460;-35
2022/07/06 12:29:19;;;;;;;2.90;1.30;;;21.70;92.50;;;;;;5032341;28;20417;-35
2022/07/06 12:31:56;;;;;;;5.33;1.37;;;21.50;91.70;;;;;;5030939;28;20447;-35
2022/07/06 12:34:27;;;;;;;2.43;1.40;;;21.70;92.50;;;;;;5032158;28;20810;-35
2022/07/06 12:36:55;;;;;;;4.80;1.30;;;21.60;90.70;;;;;;5031770;28;20448;-35
2022/07/06 12:39:23;;;;;;;3.07;1.33;;;21.50;91.10;;;;;;5031988;28;20429;-35
2022/07/06 12:41:59;;;;;;;2.33;1.97;;;21.40;91.00;;;;;;5032014;28;20538;-35
2022/07/06 12:44:26;;;;;;;3.47;1.43;;;21.20;90.40;;;;;;5032088;28;20416;-35
2022/07/06 12:47:03;;;;;;;2.27;1.30;;;21.30;91.10;;;;;;5038959;28;20421;-35
2022/07/06 12:49:30;;;;;;;2.37;1.43;;;21.60;92.70;;;;;;5031579;28;20477;-35
2022/07/06 12:52:00;;;;;;;2.10;1.10;;;21.80;91.20;;;;;;5030506;28;20780;-35
2022/07/06 12:54:28;;;;;;;1.30;0.90;;;21.90;90.60;;;;;;5030390;28;20414;-35
2022/07/06 12:57:01;;;;;;;0.97;0.80;;;21.90;89.70;;;;;;5031244;28;20463;-35
2022/07/06 12:59:27;;;;;;;1.40;0.67;;;21.80;90.80;;;;;;5031497;28;20864;-35
2022/07/06 13:01:56;;;;;;;3.70;0.90;;;21.80;90.60;;;;;;5031724;28;20488;-35
2022/07/06 13:04:26;;;;;;;0.87;0.50;;;21.80;88.20;;;;;;5031495;28;20406;-35
2022/07/06 13:06:53;;;;;;;0.93;0.70;;;21.80;89.90;;;;;;5029645;28;20469;-35
2022/07/06 13:09:20;;;;;;;1.03;0.80;;;21.80;88.40;;;;;;5031090;28;21097;-35
2022/07/06 13:11:47;;;;;;;4.30;1.13;;;21.90;89.50;;;;;;5031481;28;20417;-35
2022/07/06 13:14:17;;;;;;;1.63;0.97;;;22.00;89.40;;;;;;5031359;28;20421;-35